Terminal Aerodrome Forecast
Issued by NWS

Home | Current Version | Previous Version | Text Only | Print | Product List | Glossary On
Versions: 1 2 3 4 5 6 7 8 9 10 11 12 13 14 15
901
FTUS44 KTSA 090331 AAC
TAFMLC
TAF AMD
KMLC 090331Z 0904/0924 33013G20KT P6SM FEW250
     FM090430 32011KT P6SM SCT250
     FM091500 33013G20KT P6SM SKC=

USA.gov is the U.S. government's official web portal to all federal, state and local government web resources and services.